sensor_id;sensor_type;location;lat;lon;timestamp;P1;durP1;ratioP1;P2;durP2;ratioP2
37451;SDS011;23314;51.114;6.900;2023-03-12T00:02:17;9.97;;;5.30;;
37451;SDS011;23314;51.114;6.900;2023-03-12T00:04:42;7.97;;;4.93;;
37451;SDS011;23314;51.114;6.900;2023-03-12T00:07:08;9.03;;;4.63;;
37451;SDS011;23314;51.114;6.900;2023-03-12T00:09:34;8.97;;;5.10;;
37451;SDS011;23314;51.114;6.900;2023-03-12T00:12:00;8.37;;;4.83;;
37451;SDS011;23314;51.114;6.900;2023-03-12T00:14:26;7.93;;;4.87;;
37451;SDS011;23314;51.114;6.900;2023-03-12T00:16:51;7.93;;;4.60;;
37451;SDS011;23314;51.114;6.900;2023-03-12T00:19:16;6.67;;;4.60;;
37451;SDS011;23314;51.114;6.900;2023-03-12T00:21:42;8.60;;;4.70;;
37451;SDS011;23314;51.114;6.900;2023-03-12T00:24:07;10.73;;;4.13;;
37451;SDS011;23314;51.114;6.900;2023-03-12T00:26:32;8.53;;;4.37;;
37451;SDS011;23314;51.114;6.900;2023-03-12T00:28:58;9.67;;;4.07;;
37451;SDS011;23314;51.114;6.900;2023-03-12T00:31:25;7.97;;;4.60;;
37451;SDS011;23314;51.114;6.900;2023-03-12T00:33:53;6.33;;;4.00;;
37451;SDS011;23314;51.114;6.900;2023-03-12T00:36:20;6.97;;;4.13;;
37451;SDS011;23314;51.114;6.900;2023-03-12T00:38:49;8.13;;;4.50;;
37451;SDS011;23314;51.114;6.900;2023-03-12T00:41:15;5.73;;;3.87;;
37451;SDS011;23314;51.114;6.900;2023-03-12T00:43:40;8.37;;;4.27;;
37451;SDS011;23314;51.114;6.900;2023-03-12T00:46:06;8.83;;;3.80;;
37451;SDS011;23314;51.114;6.900;2023-03-12T00:48:31;5.47;;;4.07;;
37451;SDS011;23314;51.114;6.900;2023-03-12T00:50:57;6.77;;;4.00;;
37451;SDS011;23314;51.114;6.900;2023-03-12T00:53:22;6.17;;;4.10;;
37451;SDS011;23314;51.114;6.900;2023-03-12T00:55:47;8.63;;;3.97;;
37451;SDS011;23314;51.114;6.900;2023-03-12T00:58:13;7.07;;;4.57;;
37451;SDS011;23314;51.114;6.900;2023-03-12T01:00:38;5.50;;;3.67;;
37451;SDS011;23314;51.114;6.900;2023-03-12T01:03:04;10.00;;;4.07;;
37451;SDS011;23314;51.114;6.900;2023-03-12T01:05:29;9.97;;;4.00;;
37451;SDS011;23314;51.114;6.900;2023-03-12T01:07:55;8.10;;;3.80;;
37451;SDS011;23314;51.114;6.900;2023-03-12T01:10:21;9.30;;;4.43;;
37451;SDS011;23314;51.114;6.900;2023-03-12T01:12:46;9.40;;;3.70;;
37451;SDS011;23314;51.114;6.900;2023-03-12T01:15:13;7.60;;;3.63;;
37451;SDS011;23314;51.114;6.900;2023-03-12T01:17:40;8.03;;;3.73;;
37451;SDS011;23314;51.114;6.900;2023-03-12T01:20:06;6.93;;;3.70;;
37451;SDS011;23314;51.114;6.900;2023-03-12T01:22:33;6.60;;;3.60;;
37451;SDS011;23314;51.114;6.900;2023-03-12T01:24:59;7.90;;;3.73;;
37451;SDS011;23314;51.114;6.900;2023-03-12T01:27:24;5.27;;;3.50;;
37451;SDS011;23314;51.114;6.900;2023-03-12T01:29:50;8.00;;;3.87;;
37451;SDS011;23314;51.114;6.900;2023-03-12T01:32:16;8.47;;;3.90;;
37451;SDS011;23314;51.114;6.900;2023-03-12T01:34:41;7.10;;;3.70;;
37451;SDS011;23314;51.114;6.900;2023-03-12T01:37:07;6.23;;;3.93;;
37451;SDS011;23314;51.114;6.900;2023-03-12T01:39:32;10.30;;;3.80;;
37451;SDS011;23314;51.114;6.900;2023-03-12T01:41:58;7.77;;;3.87;;
37451;SDS011;23314;51.114;6.900;2023-03-12T01:44:24;5.67;;;3.30;;
37451;SDS011;23314;51.114;6.900;2023-03-12T01:46:49;5.67;;;3.63;;
37451;SDS011;23314;51.114;6.900;2023-03-12T01:49:17;7.50;;;3.90;;
37451;SDS011;23314;51.114;6.900;2023-03-12T01:54:33;8.33;;;4.30;;
37451;SDS011;23314;51.114;6.900;2023-03-12T01:57:03;9.40;;;3.83;;
37451;SDS011;23314;51.114;6.900;2023-03-12T01:59:32;8.43;;;4.20;;
37451;SDS011;23314;51.114;6.900;2023-03-12T02:02:01;6.67;;;3.93;;
37451;SDS011;23314;51.114;6.900;2023-03-12T02:04:28;9.50;;;4.00;;
37451;SDS011;23314;51.114;6.900;2023-03-12T02:06:57;7.63;;;3.73;;
37451;SDS011;23314;51.114;6.900;2023-03-12T02:09:28;9.37;;;3.90;;
37451;SDS011;23314;51.114;6.900;2023-03-12T02:11:56;10.67;;;4.43;;
37451;SDS011;23314;51.114;6.900;2023-03-12T02:14:21;8.33;;;4.63;;
37451;SDS011;23314;51.114;6.900;2023-03-12T02:16:47;7.90;;;3.87;;
37451;SDS011;23314;51.114;6.900;2023-03-12T02:22:14;6.80;;;4.00;;
37451;SDS011;23314;51.114;6.900;2023-03-12T02:27:31;9.40;;;3.80;;
37451;SDS011;23314;51.114;6.900;2023-03-12T02:29:58;9.37;;;3.73;;
37451;SDS011;23314;51.114;6.900;2023-03-12T02:32:26;7.13;;;3.67;;
37451;SDS011;23314;51.114;6.900;2023-03-12T02:34:55;8.30;;;4.00;;
37451;SDS011;23314;51.114;6.900;2023-03-12T02:37:21;7.27;;;3.57;;
37451;SDS011;23314;51.114;6.900;2023-03-12T02:39:50;7.40;;;3.77;;
37451;SDS011;23314;51.114;6.900;2023-03-12T02:42:21;5.30;;;3.40;;
37451;SDS011;23314;51.114;6.900;2023-03-12T02:44:48;9.53;;;3.40;;
37451;SDS011;23314;51.114;6.900;2023-03-12T02:47:14;7.77;;;3.23;;
37451;SDS011;23314;51.114;6.900;2023-03-12T02:49:39;5.43;;;3.40;;
37451;SDS011;23314;51.114;6.900;2023-03-12T02:52:04;6.50;;;3.47;;
37451;SDS011;23314;51.114;6.900;2023-03-12T02:54:30;8.70;;;3.67;;
37451;SDS011;23314;51.114;6.900;2023-03-12T02:56:55;7.27;;;3.60;;
37451;SDS011;23314;51.114;6.900;2023-03-12T02:59:21;5.47;;;3.40;;
37451;SDS011;23314;51.114;6.900;2023-03-12T03:01:54;6.50;;;3.03;;
37451;SDS011;23314;51.114;6.900;2023-03-12T03:04:21;9.27;;;2.83;;
37451;SDS011;23314;51.114;6.900;2023-03-12T03:06:47;6.43;;;3.60;;
37451;SDS011;23314;51.114;6.900;2023-03-12T03:09:12;8.33;;;3.40;;
37451;SDS011;23314;51.114;6.900;2023-03-12T03:11:38;5.80;;;3.13;;
37451;SDS011;23314;51.114;6.900;2023-03-12T03:14:04;3.73;;;3.00;;
37451;SDS011;23314;51.114;6.900;2023-03-12T03:16:31;7.50;;;3.33;;
37451;SDS011;23314;51.114;6.900;2023-03-12T03:18:56;6.67;;;3.00;;
37451;SDS011;23314;51.114;6.900;2023-03-12T03:21:22;6.17;;;3.20;;
37451;SDS011;23314;51.114;6.900;2023-03-12T03:23:48;6.30;;;2.80;;
37451;SDS011;23314;51.114;6.900;2023-03-12T03:26:15;4.73;;;2.97;;
37451;SDS011;23314;51.114;6.900;2023-03-12T03:28:42;5.83;;;2.93;;
37451;SDS011;23314;51.114;6.900;2023-03-12T03:31:08;4.87;;;3.20;;
37451;SDS011;23314;51.114;6.900;2023-03-12T03:33:34;6.10;;;3.27;;
37451;SDS011;23314;51.114;6.900;2023-03-12T03:36:01;8.13;;;3.10;;
37451;SDS011;23314;51.114;6.900;2023-03-12T03:38:28;4.63;;;2.70;;
37451;SDS011;23314;51.114;6.900;2023-03-12T03:40:55;3.53;;;2.63;;
37451;SDS011;23314;51.114;6.900;2023-03-12T03:43:20;4.67;;;2.93;;
37451;SDS011;23314;51.114;6.900;2023-03-12T03:45:46;7.90;;;3.07;;
37451;SDS011;23314;51.114;6.900;2023-03-12T03:48:12;5.70;;;2.70;;
37451;SDS011;23314;51.114;6.900;2023-03-12T03:50:38;7.63;;;3.13;;
37451;SDS011;23314;51.114;6.900;2023-03-12T03:53:04;6.33;;;2.73;;
37451;SDS011;23314;51.114;6.900;2023-03-12T03:55:33;6.87;;;3.33;;
37451;SDS011;23314;51.114;6.900;2023-03-12T03:58:01;7.03;;;3.07;;
37451;SDS011;23314;51.114;6.900;2023-03-12T04:00:26;7.97;;;2.87;;
37451;SDS011;23314;51.114;6.900;2023-03-12T04:02:51;12.37;;;3.30;;
37451;SDS011;23314;51.114;6.900;2023-03-12T04:05:17;4.10;;;2.63;;
37451;SDS011;23314;51.114;6.900;2023-03-12T04:07:43;9.00;;;2.93;;
37451;SDS011;23314;51.114;6.900;2023-03-12T04:10:09;6.47;;;2.83;;
37451;SDS011;23314;51.114;6.900;2023-03-12T04:12:34;5.73;;;2.80;;
37451;SDS011;23314;51.114;6.900;2023-03-12T04:15:00;8.67;;;3.00;;
37451;SDS011;23314;51.114;6.900;2023-03-12T04:17:25;5.03;;;2.83;;
37451;SDS011;23314;51.114;6.900;2023-03-12T04:19:50;7.33;;;2.80;;
37451;SDS011;23314;51.114;6.900;2023-03-12T04:22:16;5.47;;;2.50;;
37451;SDS011;23314;51.114;6.900;2023-03-12T04:24:41;4.93;;;2.97;;
37451;SDS011;23314;51.114;6.900;2023-03-12T04:27:07;6.37;;;2.83;;
37451;SDS011;23314;51.114;6.900;2023-03-12T04:29:32;8.00;;;2.67;;
37451;SDS011;23314;51.114;6.900;2023-03-12T04:31:57;7.30;;;2.90;;
37451;SDS011;23314;51.114;6.900;2023-03-12T04:34:23;5.53;;;2.80;;
37451;SDS011;23314;51.114;6.900;2023-03-12T04:36:48;4.83;;;2.63;;
37451;SDS011;23314;51.114;6.900;2023-03-12T04:39:17;10.47;;;3.40;;
37451;SDS011;23314;51.114;6.900;2023-03-12T04:41:43;8.43;;;2.77;;
37451;SDS011;23314;51.114;6.900;2023-03-12T04:44:09;3.90;;;3.00;;
37451;SDS011;23314;51.114;6.900;2023-03-12T04:46:35;7.37;;;3.17;;
37451;SDS011;23314;51.114;6.900;2023-03-12T04:49:00;5.73;;;2.40;;
37451;SDS011;23314;51.114;6.900;2023-03-12T04:51:26;6.47;;;2.60;;
37451;SDS011;23314;51.114;6.900;2023-03-12T04:53:52;8.67;;;2.63;;
37451;SDS011;23314;51.114;6.900;2023-03-12T04:56:17;5.47;;;2.97;;
37451;SDS011;23314;51.114;6.900;2023-03-12T04:58:43;6.10;;;3.00;;
37451;SDS011;23314;51.114;6.900;2023-03-12T05:01:12;4.17;;;2.93;;
37451;SDS011;23314;51.114;6.900;2023-03-12T05:03:46;8.63;;;2.97;;
37451;SDS011;23314;51.114;6.900;2023-03-12T05:06:12;6.73;;;3.03;;
37451;SDS011;23314;51.114;6.900;2023-03-12T05:08:37;6.50;;;3.00;;
37451;SDS011;23314;51.114;6.900;2023-03-12T05:11:02;9.50;;;2.93;;
37451;SDS011;23314;51.114;6.900;2023-03-12T05:13:28;10.07;;;2.93;;
37451;SDS011;23314;51.114;6.900;2023-03-12T05:15:53;9.10;;;2.70;;
37451;SDS011;23314;51.114;6.900;2023-03-12T05:18:18;4.60;;;2.60;;
37451;SDS011;23314;51.114;6.900;2023-03-12T05:20:46;7.47;;;2.73;;
37451;SDS011;23314;51.114;6.900;2023-03-12T05:23:21;8.17;;;3.00;;
37451;SDS011;23314;51.114;6.900;2023-03-12T05:25:46;6.87;;;3.10;;
37451;SDS011;23314;51.114;6.900;2023-03-12T05:28:11;6.90;;;2.53;;
37451;SDS011;23314;51.114;6.900;2023-03-12T05:30:38;4.63;;;2.30;;
37451;SDS011;23314;51.114;6.900;2023-03-12T05:33:03;5.33;;;2.67;;
37451;SDS011;23314;51.114;6.900;2023-03-12T05:35:28;6.73;;;2.87;;
37451;SDS011;23314;51.114;6.900;2023-03-12T05:37:54;8.93;;;3.23;;
37451;SDS011;23314;51.114;6.900;2023-03-12T05:40:19;8.27;;;3.03;;
37451;SDS011;23314;51.114;6.900;2023-03-12T05:42:44;5.03;;;3.30;;
37451;SDS011;23314;51.114;6.900;2023-03-12T05:45:10;8.33;;;3.43;;
37451;SDS011;23314;51.114;6.900;2023-03-12T05:47:35;7.27;;;3.30;;
37451;SDS011;23314;51.114;6.900;2023-03-12T05:50:00;7.27;;;3.47;;
37451;SDS011;23314;51.114;6.900;2023-03-12T05:52:26;6.17;;;2.90;;
37451;SDS011;23314;51.114;6.900;2023-03-12T05:54:51;4.77;;;2.70;;
37451;SDS011;23314;51.114;6.900;2023-03-12T05:57:17;9.27;;;3.37;;
37451;SDS011;23314;51.114;6.900;2023-03-12T05:59:42;7.03;;;3.33;;
37451;SDS011;23314;51.114;6.900;2023-03-12T06:02:07;6.77;;;2.97;;
37451;SDS011;23314;51.114;6.900;2023-03-12T06:04:33;6.33;;;3.30;;
37451;SDS011;23314;51.114;6.900;2023-03-12T06:06:58;9.60;;;3.80;;
37451;SDS011;23314;51.114;6.900;2023-03-12T06:09:23;8.90;;;4.00;;
37451;SDS011;23314;51.114;6.900;2023-03-12T06:11:49;7.33;;;3.97;;
37451;SDS011;23314;51.114;6.900;2023-03-12T06:14:14;7.43;;;4.37;;
37451;SDS011;23314;51.114;6.900;2023-03-12T06:16:39;10.47;;;4.43;;
37451;SDS011;23314;51.114;6.900;2023-03-12T06:19:05;6.87;;;4.27;;
37451;SDS011;23314;51.114;6.900;2023-03-12T06:21:32;7.43;;;4.43;;
37451;SDS011;23314;51.114;6.900;2023-03-12T06:23:59;9.17;;;4.43;;
37451;SDS011;23314;51.114;6.900;2023-03-12T06:26:25;9.93;;;4.50;;
37451;SDS011;23314;51.114;6.900;2023-03-12T06:28:51;10.73;;;4.83;;
37451;SDS011;23314;51.114;6.900;2023-03-12T06:31:17;11.60;;;4.30;;
37451;SDS011;23314;51.114;6.900;2023-03-12T06:33:44;7.60;;;3.90;;
37451;SDS011;23314;51.114;6.900;2023-03-12T06:36:10;11.10;;;3.90;;
37451;SDS011;23314;51.114;6.900;2023-03-12T06:38:35;9.73;;;3.20;;
37451;SDS011;23314;51.114;6.900;2023-03-12T06:41:06;10.87;;;3.60;;
37451;SDS011;23314;51.114;6.900;2023-03-12T06:43:37;6.93;;;3.27;;
37451;SDS011;23314;51.114;6.900;2023-03-12T06:46:03;7.10;;;3.47;;
37451;SDS011;23314;51.114;6.900;2023-03-12T06:48:31;8.60;;;3.23;;
37451;SDS011;23314;51.114;6.900;2023-03-12T06:51:00;9.90;;;3.73;;
37451;SDS011;23314;51.114;6.900;2023-03-12T06:53:28;6.53;;;3.57;;
37451;SDS011;23314;51.114;6.900;2023-03-12T06:55:54;9.00;;;3.67;;
37451;SDS011;23314;51.114;6.900;2023-03-12T06:58:20;11.67;;;3.90;;
37451;SDS011;23314;51.114;6.900;2023-03-12T07:00:45;7.17;;;3.50;;
37451;SDS011;23314;51.114;6.900;2023-03-12T07:03:10;8.33;;;3.93;;
37451;SDS011;23314;51.114;6.900;2023-03-12T07:05:36;10.63;;;4.23;;
37451;SDS011;23314;51.114;6.900;2023-03-12T07:08:01;7.00;;;3.20;;
37451;SDS011;23314;51.114;6.900;2023-03-12T07:10:27;11.67;;;4.20;;
37451;SDS011;23314;51.114;6.900;2023-03-12T07:12:53;7.17;;;3.77;;
37451;SDS011;23314;51.114;6.900;2023-03-12T07:15:19;8.37;;;3.90;;
37451;SDS011;23314;51.114;6.900;2023-03-12T07:17:44;8.57;;;4.00;;
37451;SDS011;23314;51.114;6.900;2023-03-12T07:20:10;6.93;;;3.60;;
37451;SDS011;23314;51.114;6.900;2023-03-12T07:22:36;8.07;;;3.90;;
37451;SDS011;23314;51.114;6.900;2023-03-12T07:25:01;9.70;;;4.10;;
37451;SDS011;23314;51.114;6.900;2023-03-12T07:27:26;7.97;;;3.73;;
37451;SDS011;23314;51.114;6.900;2023-03-12T07:29:52;7.10;;;3.43;;
37451;SDS011;23314;51.114;6.900;2023-03-12T07:32:17;9.43;;;3.73;;
37451;SDS011;23314;51.114;6.900;2023-03-12T07:34:42;9.47;;;3.97;;
37451;SDS011;23314;51.114;6.900;2023-03-12T07:37:08;7.40;;;3.60;;
37451;SDS011;23314;51.114;6.900;2023-03-12T07:39:33;12.43;;;3.70;;
37451;SDS011;23314;51.114;6.900;2023-03-12T07:41:59;8.00;;;3.63;;
37451;SDS011;23314;51.114;6.900;2023-03-12T07:44:25;9.03;;;3.40;;
37451;SDS011;23314;51.114;6.900;2023-03-12T07:46:51;8.83;;;3.67;;
37451;SDS011;23314;51.114;6.900;2023-03-12T07:49:17;12.63;;;3.73;;
37451;SDS011;23314;51.114;6.900;2023-03-12T07:51:42;9.57;;;3.90;;
37451;SDS011;23314;51.114;6.900;2023-03-12T07:54:07;7.00;;;3.90;;
37451;SDS011;23314;51.114;6.900;2023-03-12T07:56:33;8.23;;;3.63;;
37451;SDS011;23314;51.114;6.900;2023-03-12T07:58:58;6.93;;;3.47;;
37451;SDS011;23314;51.114;6.900;2023-03-12T08:01:23;4.93;;;3.57;;
37451;SDS011;23314;51.114;6.900;2023-03-12T08:03:55;7.27;;;3.30;;
37451;SDS011;23314;51.114;6.900;2023-03-12T08:06:21;5.80;;;3.30;;
37451;SDS011;23314;51.114;6.900;2023-03-12T08:08:46;7.87;;;3.67;;
37451;SDS011;23314;51.114;6.900;2023-03-12T08:11:12;5.53;;;3.67;;
37451;SDS011;23314;51.114;6.900;2023-03-12T08:13:37;7.03;;;3.53;;
37451;SDS011;23314;51.114;6.900;2023-03-12T08:16:03;9.33;;;4.20;;
37451;SDS011;23314;51.114;6.900;2023-03-12T08:18:28;8.77;;;3.77;;
37451;SDS011;23314;51.114;6.900;2023-03-12T08:20:54;6.57;;;3.57;;
37451;SDS011;23314;51.114;6.900;2023-03-12T08:23:19;8.40;;;4.80;;
37451;SDS011;23314;51.114;6.900;2023-03-12T08:25:46;5.57;;;3.50;;
37451;SDS011;23314;51.114;6.900;2023-03-12T08:28:13;9.93;;;4.03;;
37451;SDS011;23314;51.114;6.900;2023-03-12T08:30:43;5.90;;;3.40;;
37451;SDS011;23314;51.114;6.900;2023-03-12T08:33:16;5.63;;;4.07;;
37451;SDS011;23314;51.114;6.900;2023-03-12T08:35:43;7.17;;;4.30;;
37451;SDS011;23314;51.114;6.900;2023-03-12T08:38:09;8.63;;;4.37;;
37451;SDS011;23314;51.114;6.900;2023-03-12T08:40:34;8.70;;;4.20;;
37451;SDS011;23314;51.114;6.900;2023-03-12T08:43:00;5.57;;;3.90;;
37451;SDS011;23314;51.114;6.900;2023-03-12T08:45:26;9.00;;;4.67;;
37451;SDS011;23314;51.114;6.900;2023-03-12T08:47:51;10.77;;;4.73;;
37451;SDS011;23314;51.114;6.900;2023-03-12T08:50:16;11.30;;;4.80;;
37451;SDS011;23314;51.114;6.900;2023-03-12T08:52:42;9.43;;;4.70;;
37451;SDS011;23314;51.114;6.900;2023-03-12T08:55:11;9.37;;;4.80;;
37451;SDS011;23314;51.114;6.900;2023-03-12T08:57:36;8.70;;;4.47;;
37451;SDS011;23314;51.114;6.900;2023-03-12T09:00:02;10.67;;;5.27;;
37451;SDS011;23314;51.114;6.900;2023-03-12T09:02:35;10.10;;;4.80;;
37451;SDS011;23314;51.114;6.900;2023-03-12T09:05:01;11.93;;;6.00;;
37451;SDS011;23314;51.114;6.900;2023-03-12T09:07:27;10.47;;;5.83;;
37451;SDS011;23314;51.114;6.900;2023-03-12T09:09:53;8.57;;;5.90;;
37451;SDS011;23314;51.114;6.900;2023-03-12T09:12:19;11.53;;;6.40;;
37451;SDS011;23314;51.114;6.900;2023-03-12T09:14:44;9.27;;;6.73;;
37451;SDS011;23314;51.114;6.900;2023-03-12T09:17:10;10.80;;;6.43;;
37451;SDS011;23314;51.114;6.900;2023-03-12T09:19:35;10.77;;;6.90;;
37451;SDS011;23314;51.114;6.900;2023-03-12T09:22:00;7.80;;;6.50;;
37451;SDS011;23314;51.114;6.900;2023-03-12T09:24:26;15.40;;;8.00;;
37451;SDS011;23314;51.114;6.900;2023-03-12T09:26:51;8.83;;;6.70;;
37451;SDS011;23314;51.114;6.900;2023-03-12T09:29:16;11.73;;;7.27;;
37451;SDS011;23314;51.114;6.900;2023-03-12T09:31:42;12.80;;;8.23;;
37451;SDS011;23314;51.114;6.900;2023-03-12T09:34:07;11.47;;;8.07;;
37451;SDS011;23314;51.114;6.900;2023-03-12T09:36:33;10.47;;;8.00;;
37451;SDS011;23314;51.114;6.900;2023-03-12T09:38:58;9.53;;;7.80;;
37451;SDS011;23314;51.114;6.900;2023-03-12T09:41:28;12.00;;;7.73;;
37451;SDS011;23314;51.114;6.900;2023-03-12T09:44:12;11.53;;;8.87;;
37451;SDS011;23314;51.114;6.900;2023-03-12T09:46:47;13.23;;;8.60;;
37451;SDS011;23314;51.114;6.900;2023-03-12T09:49:31;11.87;;;9.00;;
37451;SDS011;23314;51.114;6.900;2023-03-12T09:52:01;10.53;;;8.97;;
37451;SDS011;23314;51.114;6.900;2023-03-12T09:54:40;10.53;;;8.33;;
37451;SDS011;23314;51.114;6.900;2023-03-12T09:57:13;13.17;;;8.90;;
37451;SDS011;23314;51.114;6.900;2023-03-12T09:59:45;9.70;;;8.20;;
37451;SDS011;23314;51.114;6.900;2023-03-12T10:07:56;14.37;;;8.43;;
37451;SDS011;23314;51.114;6.900;2023-03-12T10:10:46;12.50;;;8.27;;
37451;SDS011;23314;51.114;6.900;2023-03-12T10:27:32;9.80;;;8.47;;
37451;SDS011;23314;51.114;6.900;2023-03-12T10:30:01;9.63;;;8.63;;
37451;SDS011;23314;51.114;6.900;2023-03-12T10:32:40;9.40;;;8.40;;
37451;SDS011;23314;51.114;6.900;2023-03-12T10:35:18;10.03;;;8.50;;
37451;SDS011;23314;51.114;6.900;2023-03-12T10:37:49;9.83;;;8.83;;
37451;SDS011;23314;51.114;6.900;2023-03-12T10:40:18;10.83;;;9.17;;
37451;SDS011;23314;51.114;6.900;2023-03-12T10:42:48;11.67;;;9.80;;
37451;SDS011;23314;51.114;6.900;2023-03-12T10:47:43;11.97;;;10.70;;
37451;SDS011;23314;51.114;6.900;2023-03-12T10:52:49;11.97;;;9.93;;
37451;SDS011;23314;51.114;6.900;2023-03-12T10:55:34;12.17;;;10.13;;
37451;SDS011;23314;51.114;6.900;2023-03-12T10:58:00;11.23;;;9.43;;
37451;SDS011;23314;51.114;6.900;2023-03-12T11:00:26;11.30;;;9.97;;
37451;SDS011;23314;51.114;6.900;2023-03-12T11:05:46;11.67;;;9.90;;
37451;SDS011;23314;51.114;6.900;2023-03-12T11:08:19;10.00;;;9.10;;
37451;SDS011;23314;51.114;6.900;2023-03-12T11:10:59;10.83;;;9.77;;
37451;SDS011;23314;51.114;6.900;2023-03-12T11:16:01;10.67;;;9.57;;
37451;SDS011;23314;51.114;6.900;2023-03-12T11:18:39;9.90;;;9.00;;
37451;SDS011;23314;51.114;6.900;2023-03-12T11:23:33;11.27;;;10.07;;
37451;SDS011;23314;51.114;6.900;2023-03-12T11:26:00;11.23;;;10.13;;
37451;SDS011;23314;51.114;6.900;2023-03-12T11:28:40;10.77;;;9.77;;
37451;SDS011;23314;51.114;6.900;2023-03-12T11:31:12;10.43;;;9.33;;
37451;SDS011;23314;51.114;6.900;2023-03-12T11:34:06;10.60;;;9.60;;
37451;SDS011;23314;51.114;6.900;2023-03-12T11:36:42;11.10;;;9.13;;
37451;SDS011;23314;51.114;6.900;2023-03-12T11:39:16;10.80;;;9.80;;
37451;SDS011;23314;51.114;6.900;2023-03-12T11:47:24;10.47;;;9.43;;
37451;SDS011;23314;51.114;6.900;2023-03-12T12:01:17;10.97;;;9.67;;
37451;SDS011;23314;51.114;6.900;2023-03-12T12:06:47;10.63;;;9.43;;
37451;SDS011;23314;51.114;6.900;2023-03-12T12:09:35;12.23;;;10.40;;
37451;SDS011;23314;51.114;6.900;2023-03-12T12:12:24;13.53;;;10.90;;
37451;SDS011;23314;51.114;6.900;2023-03-12T12:28:40;10.40;;;9.00;;
37451;SDS011;23314;51.114;6.900;2023-03-12T12:36:40;23.90;;;8.13;;
37451;SDS011;23314;51.114;6.900;2023-03-12T12:39:14;25.20;;;8.17;;
37451;SDS011;23314;51.114;6.900;2023-03-12T12:41:49;33.03;;;9.50;;
37451;SDS011;23314;51.114;6.900;2023-03-12T12:44:19;27.77;;;9.63;;
37451;SDS011;23314;51.114;6.900;2023-03-12T12:46:50;26.13;;;8.67;;
37451;SDS011;23314;51.114;6.900;2023-03-12T12:49:21;24.87;;;8.17;;
37451;SDS011;23314;51.114;6.900;2023-03-12T12:51:57;31.33;;;9.63;;
37451;SDS011;23314;51.114;6.900;2023-03-12T12:54:30;27.47;;;8.80;;
37451;SDS011;23314;51.114;6.900;2023-03-12T12:57:10;26.07;;;8.53;;
37451;SDS011;23314;51.114;6.900;2023-03-12T12:59:42;29.17;;;7.97;;
37451;SDS011;23314;51.114;6.900;2023-03-12T13:02:16;30.43;;;7.60;;
37451;SDS011;23314;51.114;6.900;2023-03-12T13:04:44;25.33;;;7.30;;
37451;SDS011;23314;51.114;6.900;2023-03-12T13:09:37;25.03;;;7.00;;
37451;SDS011;23314;51.114;6.900;2023-03-12T13:14:39;20.07;;;6.03;;
37451;SDS011;23314;51.114;6.900;2023-03-12T13:17:08;21.37;;;6.50;;
37451;SDS011;23314;51.114;6.900;2023-03-12T13:19:46;21.73;;;7.33;;
37451;SDS011;23314;51.114;6.900;2023-03-12T13:22:17;22.33;;;6.23;;
37451;SDS011;23314;51.114;6.900;2023-03-12T13:24:53;24.23;;;5.77;;
37451;SDS011;23314;51.114;6.900;2023-03-12T13:27:43;18.17;;;5.37;;
37451;SDS011;23314;51.114;6.900;2023-03-12T13:48:15;19.43;;;5.80;;
37451;SDS011;23314;51.114;6.900;2023-03-12T13:50:48;21.20;;;6.10;;
37451;SDS011;23314;51.114;6.900;2023-03-12T13:53:21;20.57;;;5.90;;
37451;SDS011;23314;51.114;6.900;2023-03-12T13:55:58;20.23;;;5.67;;
37451;SDS011;23314;51.114;6.900;2023-03-12T13:58:26;21.50;;;5.27;;
37451;SDS011;23314;51.114;6.900;2023-03-12T14:03:30;22.27;;;5.20;;
37451;SDS011;23314;51.114;6.900;2023-03-12T14:05:59;21.73;;;5.00;;
37451;SDS011;23314;51.114;6.900;2023-03-12T14:11:28;21.23;;;5.50;;
37451;SDS011;23314;51.114;6.900;2023-03-12T14:16:53;26.53;;;5.60;;
37451;SDS011;23314;51.114;6.900;2023-03-12T14:19:22;24.77;;;5.80;;
37451;SDS011;23314;51.114;6.900;2023-03-12T14:21:50;23.67;;;6.63;;
37451;SDS011;23314;51.114;6.900;2023-03-12T14:26:59;22.57;;;6.03;;
37451;SDS011;23314;51.114;6.900;2023-03-12T14:29:37;22.93;;;5.20;;
37451;SDS011;23314;51.114;6.900;2023-03-12T14:32:05;25.47;;;5.63;;
37451;SDS011;23314;51.114;6.900;2023-03-12T14:34:40;22.27;;;5.13;;
37451;SDS011;23314;51.114;6.900;2023-03-12T14:37:17;20.67;;;5.03;;
37451;SDS011;23314;51.114;6.900;2023-03-12T14:42:20;20.10;;;4.97;;
37451;SDS011;23314;51.114;6.900;2023-03-12T14:45:09;21.90;;;5.80;;
37451;SDS011;23314;51.114;6.900;2023-03-12T14:47:39;23.57;;;5.77;;
37451;SDS011;23314;51.114;6.900;2023-03-12T14:50:06;23.03;;;5.57;;
37451;SDS011;23314;51.114;6.900;2023-03-12T14:52:41;23.70;;;5.93;;
37451;SDS011;23314;51.114;6.900;2023-03-12T14:55:10;23.73;;;5.43;;
37451;SDS011;23314;51.114;6.900;2023-03-12T14:57:38;24.77;;;5.43;;
37451;SDS011;23314;51.114;6.900;2023-03-12T15:00:04;18.63;;;5.10;;
37451;SDS011;23314;51.114;6.900;2023-03-12T15:02:38;25.40;;;5.40;;
37451;SDS011;23314;51.114;6.900;2023-03-12T15:05:13;21.27;;;5.07;;
37451;SDS011;23314;51.114;6.900;2023-03-12T15:07:41;20.77;;;5.63;;
37451;SDS011;23314;51.114;6.900;2023-03-12T15:10:14;25.00;;;5.60;;
37451;SDS011;23314;51.114;6.900;2023-03-12T15:12:44;24.60;;;6.10;;
37451;SDS011;23314;51.114;6.900;2023-03-12T15:15:18;27.97;;;6.13;;
37451;SDS011;23314;51.114;6.900;2023-03-12T15:17:51;23.63;;;6.07;;
37451;SDS011;23314;51.114;6.900;2023-03-12T15:20:17;27.20;;;6.73;;
37451;SDS011;23314;51.114;6.900;2023-03-12T15:22:45;28.53;;;6.23;;
37451;SDS011;23314;51.114;6.900;2023-03-12T15:25:30;26.23;;;6.30;;
37451;SDS011;23314;51.114;6.900;2023-03-12T15:30:40;27.37;;;6.27;;
37451;SDS011;23314;51.114;6.900;2023-03-12T15:33:11;29.60;;;6.40;;
37451;SDS011;23314;51.114;6.900;2023-03-12T15:35:56;27.93;;;6.20;;
37451;SDS011;23314;51.114;6.900;2023-03-12T15:38:26;27.23;;;5.53;;
37451;SDS011;23314;51.114;6.900;2023-03-12T15:40:53;26.07;;;6.37;;
37451;SDS011;23314;51.114;6.900;2023-03-12T15:43:21;23.03;;;6.20;;
37451;SDS011;23314;51.114;6.900;2023-03-12T15:45:55;28.70;;;6.00;;
37451;SDS011;23314;51.114;6.900;2023-03-12T15:50:54;23.93;;;5.60;;
37451;SDS011;23314;51.114;6.900;2023-03-12T15:58:46;24.00;;;5.60;;
37451;SDS011;23314;51.114;6.900;2023-03-12T16:01:12;21.93;;;6.00;;
37451;SDS011;23314;51.114;6.900;2023-03-12T16:03:39;39.37;;;5.80;;
37451;SDS011;23314;51.114;6.900;2023-03-12T16:06:12;22.83;;;6.10;;
37451;SDS011;23314;51.114;6.900;2023-03-12T16:08:49;30.67;;;6.30;;
37451;SDS011;23314;51.114;6.900;2023-03-12T16:11:17;24.60;;;6.23;;
37451;SDS011;23314;51.114;6.900;2023-03-12T16:13:45;23.73;;;6.30;;
37451;SDS011;23314;51.114;6.900;2023-03-12T16:16:13;22.93;;;6.53;;
37451;SDS011;23314;51.114;6.900;2023-03-12T16:18:39;26.27;;;6.87;;
37451;SDS011;23314;51.114;6.900;2023-03-12T16:21:05;21.93;;;5.93;;
37451;SDS011;23314;51.114;6.900;2023-03-12T16:23:31;25.53;;;6.53;;
37451;SDS011;23314;51.114;6.900;2023-03-12T16:25:57;27.50;;;6.67;;
37451;SDS011;23314;51.114;6.900;2023-03-12T16:28:23;23.93;;;5.90;;
37451;SDS011;23314;51.114;6.900;2023-03-12T16:30:49;25.23;;;5.40;;
37451;SDS011;23314;51.114;6.900;2023-03-12T16:33:17;22.90;;;5.20;;
37451;SDS011;23314;51.114;6.900;2023-03-12T16:35:44;20.73;;;5.60;;
37451;SDS011;23314;51.114;6.900;2023-03-12T16:38:09;24.47;;;5.37;;
37451;SDS011;23314;51.114;6.900;2023-03-12T16:40:38;25.47;;;5.37;;
37451;SDS011;23314;51.114;6.900;2023-03-12T16:43:10;21.30;;;5.57;;
37451;SDS011;23314;51.114;6.900;2023-03-12T16:45:41;22.33;;;5.77;;
37451;SDS011;23314;51.114;6.900;2023-03-12T16:48:09;27.83;;;5.70;;
37451;SDS011;23314;51.114;6.900;2023-03-12T16:50:38;25.20;;;5.50;;
37451;SDS011;23314;51.114;6.900;2023-03-12T16:53:03;25.53;;;5.83;;
37451;SDS011;23314;51.114;6.900;2023-03-12T16:55:29;24.50;;;5.23;;
37451;SDS011;23314;51.114;6.900;2023-03-12T16:58:10;22.33;;;6.07;;